sensor_id;sensor_type;location;lat;lon;timestamp;temperature;humidity
20345;DHT22;10330;48.816;9.278;2022-09-09T00:09:12;16.20;99.90
20345;DHT22;10330;48.816;9.278;2022-09-09T00:14:32;16.30;99.90
20345;DHT22;10330;48.816;9.278;2022-09-09T00:17:19;16.30;99.90
20345;DHT22;10330;48.816;9.278;2022-09-09T00:20:21;16.50;99.90
20345;DHT22;10330;48.816;9.278;2022-09-09T00:22:59;16.60;99.90
20345;DHT22;10330;48.816;9.278;2022-09-09T00:28:00;16.70;99.90
20345;DHT22;10330;48.816;9.278;2022-09-09T00:30:29;16.80;99.90
20345;DHT22;10330;48.816;9.278;2022-09-09T00:33:08;16.80;99.90
20345;DHT22;10330;48.816;9.278;2022-09-09T00:35:39;16.90;99.90
20345;DHT22;10330;48.816;9.278;2022-09-09T00:38:21;16.90;99.90
20345;DHT22;10330;48.816;9.278;2022-09-09T00:41:05;16.90;99.90
20345;DHT22;10330;48.816;9.278;2022-09-09T00:43:37;16.90;99.90
20345;DHT22;10330;48.816;9.278;2022-09-09T00:54:12;17.20;99.90
20345;DHT22;10330;48.816;9.278;2022-09-09T01:02:21;17.20;99.90
20345;DHT22;10330;48.816;9.278;2022-09-09T01:04:51;17.30;99.90
20345;DHT22;10330;48.816;9.278;2022-09-09T01:07:18;17.30;99.90
20345;DHT22;10330;48.816;9.278;2022-09-09T01:09:55;17.30;99.90
20345;DHT22;10330;48.816;9.278;2022-09-09T01:12:28;17.40;99.90
20345;DHT22;10330;48.816;9.278;2022-09-09T01:18:04;17.30;99.90
20345;DHT22;10330;48.816;9.278;2022-09-09T01:21:02;17.30;99.90
20345;DHT22;10330;48.816;9.278;2022-09-09T01:24:18;17.30;99.90
20345;DHT22;10330;48.816;9.278;2022-09-09T01:27:01;17.40;99.90
20345;DHT22;10330;48.816;9.278;2022-09-09T01:29:28;17.40;99.90
20345;DHT22;10330;48.816;9.278;2022-09-09T01:32:00;17.40;99.90
20345;DHT22;10330;48.816;9.278;2022-09-09T01:34:33;17.40;99.90
20345;DHT22;10330;48.816;9.278;2022-09-09T01:37:02;17.40;99.90
20345;DHT22;10330;48.816;9.278;2022-09-09T01:39:32;17.40;99.90
20345;DHT22;10330;48.816;9.278;2022-09-09T01:42:09;17.40;99.90
20345;DHT22;10330;48.816;9.278;2022-09-09T01:44:38;17.30;99.90
20345;DHT22;10330;48.816;9.278;2022-09-09T01:47:06;17.30;99.90
20345;DHT22;10330;48.816;9.278;2022-09-09T01:49:32;17.30;99.90
20345;DHT22;10330;48.816;9.278;2022-09-09T01:52:04;17.30;99.90
20345;DHT22;10330;48.816;9.278;2022-09-09T01:54:34;17.30;99.90
20345;DHT22;10330;48.816;9.278;2022-09-09T01:57:21;17.30;99.90
20345;DHT22;10330;48.816;9.278;2022-09-09T02:00:05;17.30;99.90
20345;DHT22;10330;48.816;9.278;2022-09-09T02:05:47;17.30;99.90
20345;DHT22;10330;48.816;9.278;2022-09-09T02:11:15;17.20;99.90
20345;DHT22;10330;48.816;9.278;2022-09-09T02:13:54;17.20;99.90
20345;DHT22;10330;48.816;9.278;2022-09-09T02:16:37;17.10;99.90
20345;DHT22;10330;48.816;9.278;2022-09-09T02:19:21;17.10;99.90
20345;DHT22;10330;48.816;9.278;2022-09-09T02:22:04;17.00;99.90
20345;DHT22;10330;48.816;9.278;2022-09-09T02:28:13;17.00;99.90
20345;DHT22;10330;48.816;9.278;2022-09-09T02:30:42;16.90;99.90
20345;DHT22;10330;48.816;9.278;2022-09-09T02:33:11;16.90;99.90
20345;DHT22;10330;48.816;9.278;2022-09-09T02:35:50;16.80;99.90
20345;DHT22;10330;48.816;9.278;2022-09-09T02:38:21;16.80;99.90
20345;DHT22;10330;48.816;9.278;2022-09-09T02:40:56;16.80;99.90
20345;DHT22;10330;48.816;9.278;2022-09-09T02:43:24;16.70;99.90
20345;DHT22;10330;48.816;9.278;2022-09-09T02:46:14;16.70;99.90
20345;DHT22;10330;48.816;9.278;2022-09-09T02:49:09;16.60;99.90
20345;DHT22;10330;48.816;9.278;2022-09-09T02:51:48;16.60;99.90
20345;DHT22;10330;48.816;9.278;2022-09-09T02:54:27;16.60;99.90
20345;DHT22;10330;48.816;9.278;2022-09-09T02:57:12;16.70;99.90
20345;DHT22;10330;48.816;9.278;2022-09-09T02:59:41;16.60;99.90
20345;DHT22;10330;48.816;9.278;2022-09-09T03:02:09;16.50;99.90
20345;DHT22;10330;48.816;9.278;2022-09-09T03:04:37;16.50;99.90
20345;DHT22;10330;48.816;9.278;2022-09-09T03:07:04;16.50;99.90
20345;DHT22;10330;48.816;9.278;2022-09-09T03:09:31;16.40;99.90
20345;DHT22;10330;48.816;9.278;2022-09-09T03:11:58;16.50;99.90
20345;DHT22;10330;48.816;9.278;2022-09-09T03:14:26;16.40;99.90
20345;DHT22;10330;48.816;9.278;2022-09-09T03:16:54;16.40;99.90
20345;DHT22;10330;48.816;9.278;2022-09-09T03:19:21;16.20;99.90
20345;DHT22;10330;48.816;9.278;2022-09-09T03:21:49;16.10;99.90
20345;DHT22;10330;48.816;9.278;2022-09-09T03:24:16;15.90;99.90
20345;DHT22;10330;48.816;9.278;2022-09-09T03:26:43;15.80;99.90
20345;DHT22;10330;48.816;9.278;2022-09-09T03:29:13;15.70;99.90
20345;DHT22;10330;48.816;9.278;2022-09-09T03:31:41;15.70;99.90
20345;DHT22;10330;48.816;9.278;2022-09-09T03:34:09;15.60;99.90
20345;DHT22;10330;48.816;9.278;2022-09-09T03:36:36;15.60;99.90
20345;DHT22;10330;48.816;9.278;2022-09-09T03:39:04;15.60;99.90
20345;DHT22;10330;48.816;9.278;2022-09-09T03:41:31;15.60;99.90
20345;DHT22;10330;48.816;9.278;2022-09-09T03:43:58;15.80;99.90
20345;DHT22;10330;48.816;9.278;2022-09-09T03:46:32;15.90;99.90
20345;DHT22;10330;48.816;9.278;2022-09-09T03:49:00;16.00;99.90
20345;DHT22;10330;48.816;9.278;2022-09-09T03:51:27;16.20;99.90
20345;DHT22;10330;48.816;9.278;2022-09-09T03:53:54;16.30;99.90
20345;DHT22;10330;48.816;9.278;2022-09-09T03:56:25;16.40;99.90
20345;DHT22;10330;48.816;9.278;2022-09-09T03:58:54;16.40;99.90
20345;DHT22;10330;48.816;9.278;2022-09-09T04:01:21;16.50;99.90
20345;DHT22;10330;48.816;9.278;2022-09-09T04:03:47;16.40;99.90
20345;DHT22;10330;48.816;9.278;2022-09-09T04:06:14;16.30;99.90
20345;DHT22;10330;48.816;9.278;2022-09-09T04:08:44;16.40;99.90
20345;DHT22;10330;48.816;9.278;2022-09-09T04:11:12;16.40;99.90
20345;DHT22;10330;48.816;9.278;2022-09-09T04:13:41;16.40;99.90
20345;DHT22;10330;48.816;9.278;2022-09-09T04:16:11;16.40;99.90
20345;DHT22;10330;48.816;9.278;2022-09-09T04:18:43;16.40;99.90
20345;DHT22;10330;48.816;9.278;2022-09-09T04:21:10;16.40;99.90
20345;DHT22;10330;48.816;9.278;2022-09-09T04:23:38;16.40;99.90
20345;DHT22;10330;48.816;9.278;2022-09-09T04:26:05;16.40;99.90
20345;DHT22;10330;48.816;9.278;2022-09-09T04:28:35;16.40;99.90
20345;DHT22;10330;48.816;9.278;2022-09-09T04:31:08;16.30;99.90
20345;DHT22;10330;48.816;9.278;2022-09-09T04:33:36;16.30;99.90
20345;DHT22;10330;48.816;9.278;2022-09-09T04:36:03;16.20;99.90
20345;DHT22;10330;48.816;9.278;2022-09-09T04:38:29;16.20;99.90
20345;DHT22;10330;48.816;9.278;2022-09-09T04:40:56;16.10;99.90
20345;DHT22;10330;48.816;9.278;2022-09-09T04:43:23;16.00;99.90
20345;DHT22;10330;48.816;9.278;2022-09-09T04:45:52;16.00;99.90
20345;DHT22;10330;48.816;9.278;2022-09-09T04:48:21;16.00;99.90
20345;DHT22;10330;48.816;9.278;2022-09-09T04:53:21;16.00;99.90
20345;DHT22;10330;48.816;9.278;2022-09-09T04:55:48;16.00;99.90
20345;DHT22;10330;48.816;9.278;2022-09-09T04:58:15;16.00;99.90
20345;DHT22;10330;48.816;9.278;2022-09-09T05:00:42;16.00;99.90
20345;DHT22;10330;48.816;9.278;2022-09-09T05:03:08;15.90;99.90
20345;DHT22;10330;48.816;9.278;2022-09-09T05:09:03;15.90;99.90
20345;DHT22;10330;48.816;9.278;2022-09-09T05:11:32;16.00;99.90
20345;DHT22;10330;48.816;9.278;2022-09-09T05:14:11;15.90;99.90
20345;DHT22;10330;48.816;9.278;2022-09-09T05:16:44;15.90;99.90
20345;DHT22;10330;48.816;9.278;2022-09-09T05:19:11;15.90;99.90
20345;DHT22;10330;48.816;9.278;2022-09-09T05:21:52;15.90;99.90
20345;DHT22;10330;48.816;9.278;2022-09-09T05:24:23;15.90;99.90
20345;DHT22;10330;48.816;9.278;2022-09-09T05:26:53;15.90;99.90
20345;DHT22;10330;48.816;9.278;2022-09-09T05:29:23;16.00;99.90
20345;DHT22;10330;48.816;9.278;2022-09-09T05:31:52;16.00;99.90
20345;DHT22;10330;48.816;9.278;2022-09-09T05:34:20;16.10;99.90
20345;DHT22;10330;48.816;9.278;2022-09-09T05:36:47;16.20;99.90
20345;DHT22;10330;48.816;9.278;2022-09-09T05:39:16;16.20;99.90
20345;DHT22;10330;48.816;9.278;2022-09-09T05:41:42;16.20;99.90
20345;DHT22;10330;48.816;9.278;2022-09-09T05:44:12;16.30;99.90
20345;DHT22;10330;48.816;9.278;2022-09-09T05:46:39;16.30;99.90
20345;DHT22;10330;48.816;9.278;2022-09-09T05:49:06;16.40;99.90
20345;DHT22;10330;48.816;9.278;2022-09-09T05:51:34;16.50;99.90
20345;DHT22;10330;48.816;9.278;2022-09-09T05:54:08;16.50;99.90
20345;DHT22;10330;48.816;9.278;2022-09-09T05:56:39;16.50;99.90
20345;DHT22;10330;48.816;9.278;2022-09-09T05:59:07;16.60;99.90
20345;DHT22;10330;48.816;9.278;2022-09-09T06:01:35;16.60;99.90
20345;DHT22;10330;48.816;9.278;2022-09-09T06:04:02;16.60;99.90
20345;DHT22;10330;48.816;9.278;2022-09-09T06:06:36;16.60;99.90
20345;DHT22;10330;48.816;9.278;2022-09-09T06:09:06;16.70;99.90
20345;DHT22;10330;48.816;9.278;2022-09-09T06:11:41;16.70;99.90
20345;DHT22;10330;48.816;9.278;2022-09-09T06:14:09;16.80;99.90
20345;DHT22;10330;48.816;9.278;2022-09-09T06:16:40;16.90;99.90
20345;DHT22;10330;48.816;9.278;2022-09-09T06:19:25;16.90;99.90
20345;DHT22;10330;48.816;9.278;2022-09-09T06:21:55;16.90;99.90
20345;DHT22;10330;48.816;9.278;2022-09-09T06:24:21;16.90;99.90
20345;DHT22;10330;48.816;9.278;2022-09-09T06:26:48;16.80;99.90
20345;DHT22;10330;48.816;9.278;2022-09-09T06:29:20;16.80;99.90
20345;DHT22;10330;48.816;9.278;2022-09-09T06:31:46;16.90;99.90
20345;DHT22;10330;48.816;9.278;2022-09-09T06:34:20;16.80;99.90
20345;DHT22;10330;48.816;9.278;2022-09-09T06:36:52;16.80;99.90
20345;DHT22;10330;48.816;9.278;2022-09-09T06:39:19;16.70;99.90
20345;DHT22;10330;48.816;9.278;2022-09-09T06:41:46;16.70;99.90
20345;DHT22;10330;48.816;9.278;2022-09-09T06:44:31;16.80;99.90
20345;DHT22;10330;48.816;9.278;2022-09-09T06:47:00;16.80;99.90
20345;DHT22;10330;48.816;9.278;2022-09-09T06:49:26;16.90;99.90
20345;DHT22;10330;48.816;9.278;2022-09-09T06:51:53;16.90;99.90
20345;DHT22;10330;48.816;9.278;2022-09-09T06:54:20;17.00;99.90
20345;DHT22;10330;48.816;9.278;2022-09-09T06:56:48;17.10;99.90
20345;DHT22;10330;48.816;9.278;2022-09-09T06:59:24;17.10;99.90
20345;DHT22;10330;48.816;9.278;2022-09-09T07:01:54;17.20;99.90
20345;DHT22;10330;48.816;9.278;2022-09-09T07:04:21;17.20;99.90
20345;DHT22;10330;48.816;9.278;2022-09-09T07:06:48;17.30;99.90
20345;DHT22;10330;48.816;9.278;2022-09-09T07:09:18;17.30;99.90
20345;DHT22;10330;48.816;9.278;2022-09-09T07:11:50;17.30;99.90
20345;DHT22;10330;48.816;9.278;2022-09-09T07:14:19;17.40;99.90
20345;DHT22;10330;48.816;9.278;2022-09-09T07:16:51;17.50;99.90
20345;DHT22;10330;48.816;9.278;2022-09-09T07:19:18;17.50;99.90
20345;DHT22;10330;48.816;9.278;2022-09-09T07:21:56;17.50;99.90
20345;DHT22;10330;48.816;9.278;2022-09-09T07:24:24;17.60;99.90
20345;DHT22;10330;48.816;9.278;2022-09-09T07:26:51;17.60;99.90
20345;DHT22;10330;48.816;9.278;2022-09-09T07:29:27;17.70;99.90
20345;DHT22;10330;48.816;9.278;2022-09-09T07:31:54;17.80;99.90
20345;DHT22;10330;48.816;9.278;2022-09-09T07:37:56;18.00;99.90
20345;DHT22;10330;48.816;9.278;2022-09-09T07:44:26;18.20;99.90
20345;DHT22;10330;48.816;9.278;2022-09-09T07:47:47;18.20;99.90
20345;DHT22;10330;48.816;9.278;2022-09-09T07:50:42;18.20;99.90
20345;DHT22;10330;48.816;9.278;2022-09-09T07:53:55;18.30;99.90
20345;DHT22;10330;48.816;9.278;2022-09-09T07:56:43;18.40;99.90
20345;DHT22;10330;48.816;9.278;2022-09-09T08:10:21;18.30;99.90
20345;DHT22;10330;48.816;9.278;2022-09-09T08:13:12;18.40;99.90
20345;DHT22;10330;48.816;9.278;2022-09-09T08:26:35;18.90;99.90
20345;DHT22;10330;48.816;9.278;2022-09-09T08:29:30;18.90;99.90
20345;DHT22;10330;48.816;9.278;2022-09-09T08:32:14;19.00;99.90
20345;DHT22;10330;48.816;9.278;2022-09-09T08:34:47;19.10;99.90
20345;DHT22;10330;48.816;9.278;2022-09-09T08:53:44;20.00;99.90
20345;DHT22;10330;48.816;9.278;2022-09-09T08:56:31;20.10;99.90
20345;DHT22;10330;48.816;9.278;2022-09-09T08:59:19;20.10;99.90
20345;DHT22;10330;48.816;9.278;2022-09-09T09:02:26;20.20;99.90
20345;DHT22;10330;48.816;9.278;2022-09-09T09:05:08;20.30;99.90
20345;DHT22;10330;48.816;9.278;2022-09-09T09:31:05;20.80;99.90
20345;DHT22;10330;48.816;9.278;2022-09-09T09:34:01;20.60;99.90
20345;DHT22;10330;48.816;9.278;2022-09-09T09:41:43;20.30;99.90
20345;DHT22;10330;48.816;9.278;2022-09-09T09:46:50;19.90;99.90
20345;DHT22;10330;48.816;9.278;2022-09-09T09:49:20;19.60;99.90
20345;DHT22;10330;48.816;9.278;2022-09-09T09:58:52;19.10;99.90
20345;DHT22;10330;48.816;9.278;2022-09-09T10:01:54;19.10;99.90
20345;DHT22;10330;48.816;9.278;2022-09-09T10:04:26;19.40;99.90
20345;DHT22;10330;48.816;9.278;2022-09-09T10:06:55;19.50;99.90
20345;DHT22;10330;48.816;9.278;2022-09-09T10:09:56;19.70;99.90
20345;DHT22;10330;48.816;9.278;2022-09-09T10:19:03;20.10;99.90
20345;DHT22;10330;48.816;9.278;2022-09-09T10:40:38;20.70;99.90
20345;DHT22;10330;48.816;9.278;2022-09-09T10:52:01;21.60;99.90
20345;DHT22;10330;48.816;9.278;2022-09-09T10:55:00;21.40;99.90
20345;DHT22;10330;48.816;9.278;2022-09-09T10:57:50;21.60;99.90
20345;DHT22;10330;48.816;9.278;2022-09-09T11:06:05;21.70;99.90
20345;DHT22;10330;48.816;9.278;2022-09-09T11:08:36;21.80;99.90
20345;DHT22;10330;48.816;9.278;2022-09-09T11:11:09;22.00;99.90
20345;DHT22;10330;48.816;9.278;2022-09-09T11:19:33;22.10;99.90
20345;DHT22;10330;48.816;9.278;2022-09-09T11:22:25;22.10;99.90
20345;DHT22;10330;48.816;9.278;2022-09-09T11:24:53;22.10;99.90
20345;DHT22;10330;48.816;9.278;2022-09-09T11:27:40;22.00;99.90
20345;DHT22;10330;48.816;9.278;2022-09-09T11:38:47;20.40;99.90
20345;DHT22;10330;48.816;9.278;2022-09-09T11:41:15;20.30;99.90
20345;DHT22;10330;48.816;9.278;2022-09-09T11:43:45;20.10;99.90
20345;DHT22;10330;48.816;9.278;2022-09-09T11:46:14;20.00;99.90
20345;DHT22;10330;48.816;9.278;2022-09-09T11:48:43;19.90;99.90
20345;DHT22;10330;48.816;9.278;2022-09-09T11:51:24;19.80;99.90
20345;DHT22;10330;48.816;9.278;2022-09-09T11:53:54;19.90;99.90
20345;DHT22;10330;48.816;9.278;2022-09-09T11:56:43;19.80;99.90
20345;DHT22;10330;48.816;9.278;2022-09-09T12:01:59;19.90;99.90
20345;DHT22;10330;48.816;9.278;2022-09-09T12:04:33;20.00;99.90
20345;DHT22;10330;48.816;9.278;2022-09-09T12:07:20;20.20;99.90
20345;DHT22;10330;48.816;9.278;2022-09-09T12:10:04;20.30;99.90
20345;DHT22;10330;48.816;9.278;2022-09-09T12:12:36;20.30;99.90
20345;DHT22;10330;48.816;9.278;2022-09-09T12:17:49;20.50;99.90
20345;DHT22;10330;48.816;9.278;2022-09-09T12:20:20;20.70;99.90
20345;DHT22;10330;48.816;9.278;2022-09-09T12:32:04;20.80;99.90
20345;DHT22;10330;48.816;9.278;2022-09-09T12:34:39;20.70;99.90
20345;DHT22;10330;48.816;9.278;2022-09-09T12:37:24;20.80;99.90
20345;DHT22;10330;48.816;9.278;2022-09-09T12:39:58;21.30;99.90
20345;DHT22;10330;48.816;9.278;2022-09-09T12:42:42;21.80;99.90
20345;DHT22;10330;48.816;9.278;2022-09-09T12:45:23;22.00;99.90
20345;DHT22;10330;48.816;9.278;2022-09-09T12:48:03;22.90;99.90
20345;DHT22;10330;48.816;9.278;2022-09-09T12:50:38;22.80;99.90
20345;DHT22;10330;48.816;9.278;2022-09-09T12:53:22;22.60;99.90
20345;DHT22;10330;48.816;9.278;2022-09-09T12:55:56;22.60;99.90
20345;DHT22;10330;48.816;9.278;2022-09-09T12:58:23;22.50;99.90
20345;DHT22;10330;48.816;9.278;2022-09-09T13:00:52;22.20;99.90
20345;DHT22;10330;48.816;9.278;2022-09-09T13:03:20;22.10;99.90
20345;DHT22;10330;48.816;9.278;2022-09-09T13:05:47;22.00;99.90
20345;DHT22;10330;48.816;9.278;2022-09-09T13:08:15;22.10;99.90
20345;DHT22;10330;48.816;9.278;2022-09-09T13:10:56;21.90;99.90
20345;DHT22;10330;48.816;9.278;2022-09-09T13:13:27;22.30;99.90
20345;DHT22;10330;48.816;9.278;2022-09-09T13:16:00;22.50;99.90
20345;DHT22;10330;48.816;9.278;2022-09-09T13:18:30;22.40;99.90
20345;DHT22;10330;48.816;9.278;2022-09-09T13:20:58;22.10;99.90
20345;DHT22;10330;48.816;9.278;2022-09-09T13:23:28;22.10;99.90
20345;DHT22;10330;48.816;9.278;2022-09-09T13:26:00;22.10;99.90
20345;DHT22;10330;48.816;9.278;2022-09-09T13:28:29;21.90;99.90
20345;DHT22;10330;48.816;9.278;2022-09-09T13:31:01;21.70;99.90
20345;DHT22;10330;48.816;9.278;2022-09-09T13:33:33;21.70;99.90
20345;DHT22;10330;48.816;9.278;2022-09-09T13:36:04;21.70;99.90
20345;DHT22;10330;48.816;9.278;2022-09-09T13:38:52;21.90;99.90
20345;DHT22;10330;48.816;9.278;2022-09-09T13:41:42;22.10;99.90
20345;DHT22;10330;48.816;9.278;2022-09-09T13:44:06;22.40;99.90
20345;DHT22;10330;48.816;9.278;2022-09-09T13:46:37;23.20;99.90
20345;DHT22;10330;48.816;9.278;2022-09-09T13:51:49;24.30;99.90
20345;DHT22;10330;48.816;9.278;2022-09-09T13:54:18;24.90;99.90
20345;DHT22;10330;48.816;9.278;2022-09-09T13:56:45;24.60;99.90
20345;DHT22;10330;48.816;9.278;2022-09-09T13:59:16;24.00;99.90
20345;DHT22;10330;48.816;9.278;2022-09-09T14:01:44;23.80;99.90
20345;DHT22;10330;48.816;9.278;2022-09-09T14:04:10;23.60;99.90
20345;DHT22;10330;48.816;9.278;2022-09-09T14:06:37;23.40;99.90
20345;DHT22;10330;48.816;9.278;2022-09-09T14:09:11;23.40;99.90
20345;DHT22;10330;48.816;9.278;2022-09-09T14:11:38;23.60;99.90
20345;DHT22;10330;48.816;9.278;2022-09-09T14:14:06;24.30;99.90
20345;DHT22;10330;48.816;9.278;2022-09-09T14:16:33;24.80;99.90
20345;DHT22;10330;48.816;9.278;2022-09-09T14:19:00;25.30;99.90
20345;DHT22;10330;48.816;9.278;2022-09-09T14:21:27;25.80;99.90
20345;DHT22;10330;48.816;9.278;2022-09-09T14:23:54;25.80;99.90
20345;DHT22;10330;48.816;9.278;2022-09-09T14:26:25;25.80;99.90
20345;DHT22;10330;48.816;9.278;2022-09-09T14:28:52;26.10;99.90
20345;DHT22;10330;48.816;9.278;2022-09-09T14:31:18;25.90;99.90
20345;DHT22;10330;48.816;9.278;2022-09-09T14:33:45;25.40;99.90
20345;DHT22;10330;48.816;9.278;2022-09-09T14:36:11;25.30;99.90
20345;DHT22;10330;48.816;9.278;2022-09-09T14:38:38;24.50;99.90
20345;DHT22;10330;48.816;9.278;2022-09-09T14:41:13;24.10;99.90
20345;DHT22;10330;48.816;9.278;2022-09-09T14:43:43;23.50;99.90
20345;DHT22;10330;48.816;9.278;2022-09-09T14:46:11;23.40;99.90
20345;DHT22;10330;48.816;9.278;2022-09-09T14:48:39;23.70;99.90
20345;DHT22;10330;48.816;9.278;2022-09-09T14:51:29;23.90;99.90
20345;DHT22;10330;48.816;9.278;2022-09-09T14:53:57;23.70;99.90
20345;DHT22;10330;48.816;9.278;2022-09-09T14:56:26;23.30;99.90
20345;DHT22;10330;48.816;9.278;2022-09-09T14:58:58;23.40;99.90
20345;DHT22;10330;48.816;9.278;2022-09-09T15:01:36;24.20;99.90
20345;DHT22;10330;48.816;9.278;2022-09-09T15:04:10;24.80;99.90
20345;DHT22;10330;48.816;9.278;2022-09-09T15:07:06;25.00;99.90
20345;DHT22;10330;48.816;9.278;2022-09-09T15:17:27;25.40;99.90
20345;DHT22;10330;48.816;9.278;2022-09-09T15:32:04;23.40;99.90
20345;DHT22;10330;48.816;9.278;2022-09-09T15:34:52;23.00;99.90
20345;DHT22;10330;48.816;9.278;2022-09-09T15:37:36;22.90;99.90
20345;DHT22;10330;48.816;9.278;2022-09-09T15:40:14;22.90;99.90
20345;DHT22;10330;48.816;9.278;2022-09-09T15:42:47;22.80;99.90
20345;DHT22;10330;48.816;9.278;2022-09-09T15:45:13;22.90;99.90
20345;DHT22;10330;48.816;9.278;2022-09-09T15:47:41;22.90;99.90
20345;DHT22;10330;48.816;9.278;2022-09-09T15:50:07;23.00;99.90
20345;DHT22;10330;48.816;9.278;2022-09-09T15:52:33;22.80;99.90
20345;DHT22;10330;48.816;9.278;2022-09-09T15:55:00;22.50;99.90
20345;DHT22;10330;48.816;9.278;2022-09-09T18:20:17;18.50;99.90
20345;DHT22;10330;48.816;9.278;2022-09-09T18:22:44;18.50;99.90
20345;DHT22;10330;48.816;9.278;2022-09-09T18:25:13;18.50;99.90
20345;DHT22;10330;48.816;9.278;2022-09-09T18:27:40;18.50;99.90
20345;DHT22;10330;48.816;9.278;2022-09-09T18:30:06;18.50;99.90
20345;DHT22;10330;48.816;9.278;2022-09-09T18:32:35;18.50;99.90
20345;DHT22;10330;48.816;9.278;2022-09-09T18:35:01;18.50;99.90
20345;DHT22;10330;48.816;9.278;2022-09-09T18:37:27;18.40;99.90
20345;DHT22;10330;48.816;9.278;2022-09-09T18:39:53;18.40;99.90
20345;DHT22;10330;48.816;9.278;2022-09-09T18:42:20;18.50;99.90
20345;DHT22;10330;48.816;9.278;2022-09-09T18:44:46;18.50;99.90
20345;DHT22;10330;48.816;9.278;2022-09-09T18:47:12;18.50;99.90
20345;DHT22;10330;48.816;9.278;2022-09-09T18:49:39;18.50;99.90
20345;DHT22;10330;48.816;9.278;2022-09-09T18:52:05;18.50;99.90
20345;DHT22;10330;48.816;9.278;2022-09-09T18:54:31;18.60;99.90
20345;DHT22;10330;48.816;9.278;2022-09-09T18:56:59;18.60;99.90
20345;DHT22;10330;48.816;9.278;2022-09-09T18:59:26;18.60;99.90
20345;DHT22;10330;48.816;9.278;2022-09-09T19:01:53;18.50;99.90
20345;DHT22;10330;48.816;9.278;2022-09-09T19:04:21;18.50;99.90
20345;DHT22;10330;48.816;9.278;2022-09-09T19:06:48;18.60;99.90
20345;DHT22;10330;48.816;9.278;2022-09-09T19:09:17;18.60;99.90
20345;DHT22;10330;48.816;9.278;2022-09-09T19:11:44;18.60;99.90
20345;DHT22;10330;48.816;9.278;2022-09-09T19:14:12;18.60;99.90
20345;DHT22;10330;48.816;9.278;2022-09-09T19:16:40;18.60;99.90
20345;DHT22;10330;48.816;9.278;2022-09-09T19:19:19;18.70;99.90
20345;DHT22;10330;48.816;9.278;2022-09-09T19:21:46;18.50;99.90
20345;DHT22;10330;48.816;9.278;2022-09-09T19:24:19;18.50;99.90
20345;DHT22;10330;48.816;9.278;2022-09-09T19:26:52;18.40;99.90
20345;DHT22;10330;48.816;9.278;2022-09-09T19:29:35;18.50;99.90
20345;DHT22;10330;48.816;9.278;2022-09-09T19:32:18;18.50;99.90
20345;DHT22;10330;48.816;9.278;2022-09-09T19:34:45;18.60;99.90
20345;DHT22;10330;48.816;9.278;2022-09-09T19:37:14;18.60;99.90
20345;DHT22;10330;48.816;9.278;2022-09-09T19:39:41;18.60;99.90
20345;DHT22;10330;48.816;9.278;2022-09-09T19:42:07;18.60;99.90
20345;DHT22;10330;48.816;9.278;2022-09-09T19:44:34;18.60;99.90
20345;DHT22;10330;48.816;9.278;2022-09-09T19:47:01;18.50;99.90
20345;DHT22;10330;48.816;9.278;2022-09-09T19:49:30;18.50;99.90
20345;DHT22;10330;48.816;9.278;2022-09-09T19:52:24;18.40;99.90
20345;DHT22;10330;48.816;9.278;2022-09-09T19:55:06;18.40;99.90
20345;DHT22;10330;48.816;9.278;2022-09-09T19:57:35;18.20;99.90
20345;DHT22;10330;48.816;9.278;2022-09-09T20:00:05;18.10;99.90
20345;DHT22;10330;48.816;9.278;2022-09-09T20:02:38;18.10;99.90
20345;DHT22;10330;48.816;9.278;2022-09-09T20:05:05;18.10;99.90
20345;DHT22;10330;48.816;9.278;2022-09-09T20:07:35;18.00;99.90
20345;DHT22;10330;48.816;9.278;2022-09-09T20:10:04;18.00;99.90
20345;DHT22;10330;48.816;9.278;2022-09-09T20:12:33;18.00;99.90
20345;DHT22;10330;48.816;9.278;2022-09-09T20:15:00;18.00;99.90
20345;DHT22;10330;48.816;9.278;2022-09-09T20:17:26;17.90;99.90
20345;DHT22;10330;48.816;9.278;2022-09-09T20:19:53;17.90;99.90
20345;DHT22;10330;48.816;9.278;2022-09-09T20:22:22;17.90;99.90
20345;DHT22;10330;48.816;9.278;2022-09-09T20:24:54;17.90;99.90
20345;DHT22;10330;48.816;9.278;2022-09-09T20:27:26;17.90;99.90
20345;DHT22;10330;48.816;9.278;2022-09-09T20:29:53;17.90;99.90
20345;DHT22;10330;48.816;9.278;2022-09-09T20:32:20;17.80;99.90
20345;DHT22;10330;48.816;9.278;2022-09-09T20:34:53;17.80;99.90
20345;DHT22;10330;48.816;9.278;2022-09-09T20:37:34;17.80;99.90
20345;DHT22;10330;48.816;9.278;2022-09-09T20:40:05;17.80;99.90
20345;DHT22;10330;48.816;9.278;2022-09-09T20:42:40;17.70;99.90
20345;DHT22;10330;48.816;9.278;2022-09-09T20:45:11;17.70;99.90
20345;DHT22;10330;48.816;9.278;2022-09-09T20:47:49;17.70;99.90
20345;DHT22;10330;48.816;9.278;2022-09-09T20:50:19;17.60;99.90
20345;DHT22;10330;48.816;9.278;2022-09-09T20:52:48;17.60;99.90
20345;DHT22;10330;48.816;9.278;2022-09-09T20:55:18;17.50;99.90
20345;DHT22;10330;48.816;9.278;2022-09-09T20:57:48;17.60;99.90
20345;DHT22;10330;48.816;9.278;2022-09-09T21:00:16;17.60;99.90
20345;DHT22;10330;48.816;9.278;2022-09-09T21:02:46;17.60;99.90
20345;DHT22;10330;48.816;9.278;2022-09-09T21:05:16;17.60;99.90
20345;DHT22;10330;48.816;9.278;2022-09-09T21:08:12;17.50;99.90
20345;DHT22;10330;48.816;9.278;2022-09-09T21:10:47;17.50;99.90
20345;DHT22;10330;48.816;9.278;2022-09-09T21:13:14;17.50;99.90
20345;DHT22;10330;48.816;9.278;2022-09-09T21:15:44;17.40;99.90
20345;DHT22;10330;48.816;9.278;2022-09-09T21:18:14;17.40;99.90
20345;DHT22;10330;48.816;9.278;2022-09-09T21:20:47;17.40;99.90
20345;DHT22;10330;48.816;9.278;2022-09-09T21:23:18;17.40;99.90
20345;DHT22;10330;48.816;9.278;2022-09-09T21:25:45;17.30;99.90
20345;DHT22;10330;48.816;9.278;2022-09-09T21:28:28;17.40;99.90
20345;DHT22;10330;48.816;9.278;2022-09-09T21:30:56;17.30;99.90
20345;DHT22;10330;48.816;9.278;2022-09-09T21:33:29;17.30;99.90
20345;DHT22;10330;48.816;9.278;2022-09-09T21:36:10;17.30;99.90
20345;DHT22;10330;48.816;9.278;2022-09-09T21:38:41;17.20;99.90
20345;DHT22;10330;48.816;9.278;2022-09-09T21:41:09;17.20;99.90
20345;DHT22;10330;48.816;9.278;2022-09-09T21:43:38;17.10;99.90
20345;DHT22;10330;48.816;9.278;2022-09-09T21:46:08;17.10;99.90
20345;DHT22;10330;48.816;9.278;2022-09-09T21:48:35;17.10;99.90
20345;DHT22;10330;48.816;9.278;2022-09-09T21:51:06;17.10;99.90
20345;DHT22;10330;48.816;9.278;2022-09-09T21:53:33;17.00;99.90
20345;DHT22;10330;48.816;9.278;2022-09-09T21:56:03;16.90;99.90
20345;DHT22;10330;48.816;9.278;2022-09-09T21:58:33;16.90;99.90
20345;DHT22;10330;48.816;9.278;2022-09-09T22:00:59;16.90;99.90
20345;DHT22;10330;48.816;9.278;2022-09-09T22:03:25;16.90;99.90
20345;DHT22;10330;48.816;9.278;2022-09-09T22:05:52;16.80;99.90
20345;DHT22;10330;48.816;9.278;2022-09-09T22:08:21;16.80;99.90